sensor_id;sensor_type;location;lat;lon;timestamp;temperature;humidity
15231;DHT22;32569;51.762;8.564;2023-08-30T00:01:22;13.20;99.90
15231;DHT22;32569;51.762;8.564;2023-08-30T00:03:48;13.10;99.90
15231;DHT22;32569;51.762;8.564;2023-08-30T00:06:15;13.10;99.90
15231;DHT22;32569;51.762;8.564;2023-08-30T00:08:41;13.20;99.90
15231;DHT22;32569;51.762;8.564;2023-08-30T00:11:07;13.10;99.90
15231;DHT22;32569;51.762;8.564;2023-08-30T00:13:34;13.00;99.90
15231;DHT22;32569;51.762;8.564;2023-08-30T00:16:03;13.00;99.90
15231;DHT22;32569;51.762;8.564;2023-08-30T00:18:29;12.80;99.90
15231;DHT22;32569;51.762;8.564;2023-08-30T00:20:56;12.80;99.90
15231;DHT22;32569;51.762;8.564;2023-08-30T00:23:23;12.90;99.90
15231;DHT22;32569;51.762;8.564;2023-08-30T00:25:50;12.80;99.90
15231;DHT22;32569;51.762;8.564;2023-08-30T00:28:17;12.90;99.90
15231;DHT22;32569;51.762;8.564;2023-08-30T00:30:43;13.10;99.90
15231;DHT22;32569;51.762;8.564;2023-08-30T00:33:11;13.00;99.90
15231;DHT22;32569;51.762;8.564;2023-08-30T00:35:38;13.00;99.90
15231;DHT22;32569;51.762;8.564;2023-08-30T00:38:05;13.10;99.90
15231;DHT22;32569;51.762;8.564;2023-08-30T00:40:38;13.00;99.90
15231;DHT22;32569;51.762;8.564;2023-08-30T00:43:05;13.00;99.90
15231;DHT22;32569;51.762;8.564;2023-08-30T00:45:32;12.90;99.90
15231;DHT22;32569;51.762;8.564;2023-08-30T00:48:02;13.00;99.90
15231;DHT22;32569;51.762;8.564;2023-08-30T00:50:31;13.00;99.90
15231;DHT22;32569;51.762;8.564;2023-08-30T00:52:58;13.00;99.90
15231;DHT22;32569;51.762;8.564;2023-08-30T00:55:25;13.00;99.90
15231;DHT22;32569;51.762;8.564;2023-08-30T00:57:51;13.10;99.90
15231;DHT22;32569;51.762;8.564;2023-08-30T01:00:18;13.10;99.90
15231;DHT22;32569;51.762;8.564;2023-08-30T01:02:45;13.20;99.90
15231;DHT22;32569;51.762;8.564;2023-08-30T01:05:12;13.20;99.90
15231;DHT22;32569;51.762;8.564;2023-08-30T01:07:41;13.20;99.90
15231;DHT22;32569;51.762;8.564;2023-08-30T01:10:08;13.20;99.90
15231;DHT22;32569;51.762;8.564;2023-08-30T01:12:40;13.30;99.90
15231;DHT22;32569;51.762;8.564;2023-08-30T01:15:12;13.30;99.90
15231;DHT22;32569;51.762;8.564;2023-08-30T01:17:40;13.30;99.90
15231;DHT22;32569;51.762;8.564;2023-08-30T01:20:08;13.30;99.90
15231;DHT22;32569;51.762;8.564;2023-08-30T01:22:47;13.30;99.90
15231;DHT22;32569;51.762;8.564;2023-08-30T01:25:27;13.30;99.90
15231;DHT22;32569;51.762;8.564;2023-08-30T01:28:01;13.20;99.90
15231;DHT22;32569;51.762;8.564;2023-08-30T01:30:29;13.20;99.90
15231;DHT22;32569;51.762;8.564;2023-08-30T01:32:58;13.30;99.90
15231;DHT22;32569;51.762;8.564;2023-08-30T01:35:26;13.30;99.90
15231;DHT22;32569;51.762;8.564;2023-08-30T01:37:58;13.30;99.90
15231;DHT22;32569;51.762;8.564;2023-08-30T01:40:29;13.30;99.90
15231;DHT22;32569;51.762;8.564;2023-08-30T01:42:58;13.50;99.90
15231;DHT22;32569;51.762;8.564;2023-08-30T01:45:28;13.60;99.90
15231;DHT22;32569;51.762;8.564;2023-08-30T01:47:56;13.60;99.90
15231;DHT22;32569;51.762;8.564;2023-08-30T01:50:23;13.60;99.90
15231;DHT22;32569;51.762;8.564;2023-08-30T01:52:52;13.60;99.90
15231;DHT22;32569;51.762;8.564;2023-08-30T01:55:20;13.50;99.90
15231;DHT22;32569;51.762;8.564;2023-08-30T01:57:48;13.50;99.90
15231;DHT22;32569;51.762;8.564;2023-08-30T02:00:15;13.40;99.90
15231;DHT22;32569;51.762;8.564;2023-08-30T02:02:43;13.40;99.90
15231;DHT22;32569;51.762;8.564;2023-08-30T02:05:09;13.40;99.90
15231;DHT22;32569;51.762;8.564;2023-08-30T02:07:42;13.40;99.90
15231;DHT22;32569;51.762;8.564;2023-08-30T02:10:13;13.40;99.90
15231;DHT22;32569;51.762;8.564;2023-08-30T02:12:46;13.40;99.90
15231;DHT22;32569;51.762;8.564;2023-08-30T02:15:14;13.30;99.90
15231;DHT22;32569;51.762;8.564;2023-08-30T02:17:44;13.40;99.90
15231;DHT22;32569;51.762;8.564;2023-08-30T02:20:11;13.50;99.90
15231;DHT22;32569;51.762;8.564;2023-08-30T02:22:38;13.50;99.90
15231;DHT22;32569;51.762;8.564;2023-08-30T02:25:05;13.50;99.90
15231;DHT22;32569;51.762;8.564;2023-08-30T02:27:36;13.40;99.90
15231;DHT22;32569;51.762;8.564;2023-08-30T02:30:03;13.40;99.90
15231;DHT22;32569;51.762;8.564;2023-08-30T02:32:30;13.40;99.90
15231;DHT22;32569;51.762;8.564;2023-08-30T02:34:58;13.50;99.90
15231;DHT22;32569;51.762;8.564;2023-08-30T02:37:25;13.50;99.90
15231;DHT22;32569;51.762;8.564;2023-08-30T02:39:51;13.60;99.90
15231;DHT22;32569;51.762;8.564;2023-08-30T02:42:18;13.60;99.90
15231;DHT22;32569;51.762;8.564;2023-08-30T02:44:45;13.50;99.90
15231;DHT22;32569;51.762;8.564;2023-08-30T02:47:11;13.50;99.90
15231;DHT22;32569;51.762;8.564;2023-08-30T02:49:38;13.40;99.90
15231;DHT22;32569;51.762;8.564;2023-08-30T02:52:06;13.50;99.90
15231;DHT22;32569;51.762;8.564;2023-08-30T02:54:33;13.50;99.90
15231;DHT22;32569;51.762;8.564;2023-08-30T02:57:00;13.50;99.90
15231;DHT22;32569;51.762;8.564;2023-08-30T02:59:26;13.50;99.90
15231;DHT22;32569;51.762;8.564;2023-08-30T03:01:53;13.50;99.90
15231;DHT22;32569;51.762;8.564;2023-08-30T03:04:20;13.40;99.90
15231;DHT22;32569;51.762;8.564;2023-08-30T03:06:47;13.50;99.90
15231;DHT22;32569;51.762;8.564;2023-08-30T03:09:15;13.40;99.90
15231;DHT22;32569;51.762;8.564;2023-08-30T03:11:42;13.30;99.90
15231;DHT22;32569;51.762;8.564;2023-08-30T03:14:08;13.30;99.90
15231;DHT22;32569;51.762;8.564;2023-08-30T03:16:35;13.20;99.90
15231;DHT22;32569;51.762;8.564;2023-08-30T03:19:02;13.30;99.90
15231;DHT22;32569;51.762;8.564;2023-08-30T03:21:29;13.20;99.90
15231;DHT22;32569;51.762;8.564;2023-08-30T03:23:55;13.10;99.90
15231;DHT22;32569;51.762;8.564;2023-08-30T03:26:23;13.10;99.90
15231;DHT22;32569;51.762;8.564;2023-08-30T03:28:50;13.00;99.90
15231;DHT22;32569;51.762;8.564;2023-08-30T03:31:18;13.00;99.90
15231;DHT22;32569;51.762;8.564;2023-08-30T03:33:45;12.90;99.90
15231;DHT22;32569;51.762;8.564;2023-08-30T03:36:13;12.90;99.90
15231;DHT22;32569;51.762;8.564;2023-08-30T03:38:41;12.90;99.90
15231;DHT22;32569;51.762;8.564;2023-08-30T03:41:08;12.80;99.90
15231;DHT22;32569;51.762;8.564;2023-08-30T03:43:36;12.80;99.90
15231;DHT22;32569;51.762;8.564;2023-08-30T03:46:03;12.80;99.90
15231;DHT22;32569;51.762;8.564;2023-08-30T03:48:30;12.80;99.90
15231;DHT22;32569;51.762;8.564;2023-08-30T03:50:58;12.90;99.90
15231;DHT22;32569;51.762;8.564;2023-08-30T03:53:24;13.00;99.90
15231;DHT22;32569;51.762;8.564;2023-08-30T03:55:51;13.10;99.90
15231;DHT22;32569;51.762;8.564;2023-08-30T03:58:18;13.00;99.90
15231;DHT22;32569;51.762;8.564;2023-08-30T04:00:46;13.10;99.90
15231;DHT22;32569;51.762;8.564;2023-08-30T04:03:15;13.00;99.90
15231;DHT22;32569;51.762;8.564;2023-08-30T04:05:42;13.10;99.90
15231;DHT22;32569;51.762;8.564;2023-08-30T04:08:09;13.10;99.90
15231;DHT22;32569;51.762;8.564;2023-08-30T04:10:36;13.10;99.90
15231;DHT22;32569;51.762;8.564;2023-08-30T04:13:03;13.00;99.90
15231;DHT22;32569;51.762;8.564;2023-08-30T04:15:32;13.00;99.90
15231;DHT22;32569;51.762;8.564;2023-08-30T04:18:01;12.80;99.90
15231;DHT22;32569;51.762;8.564;2023-08-30T04:20:28;12.80;99.90
15231;DHT22;32569;51.762;8.564;2023-08-30T04:22:54;12.90;99.90
15231;DHT22;32569;51.762;8.564;2023-08-30T04:25:22;13.00;99.90
15231;DHT22;32569;51.762;8.564;2023-08-30T04:27:48;12.90;99.90
15231;DHT22;32569;51.762;8.564;2023-08-30T04:30:16;13.00;99.90
15231;DHT22;32569;51.762;8.564;2023-08-30T04:32:48;13.00;99.90
15231;DHT22;32569;51.762;8.564;2023-08-30T04:35:16;13.00;99.90
15231;DHT22;32569;51.762;8.564;2023-08-30T04:37:43;13.10;99.90
15231;DHT22;32569;51.762;8.564;2023-08-30T04:40:10;13.10;99.90
15231;DHT22;32569;51.762;8.564;2023-08-30T04:42:38;13.10;99.90
15231;DHT22;32569;51.762;8.564;2023-08-30T04:45:06;13.30;99.90
15231;DHT22;32569;51.762;8.564;2023-08-30T04:47:35;13.30;99.90
15231;DHT22;32569;51.762;8.564;2023-08-30T04:50:05;13.20;99.90
15231;DHT22;32569;51.762;8.564;2023-08-30T04:52:33;13.20;99.90
15231;DHT22;32569;51.762;8.564;2023-08-30T04:55:00;13.20;99.90
15231;DHT22;32569;51.762;8.564;2023-08-30T04:57:27;13.20;99.90
15231;DHT22;32569;51.762;8.564;2023-08-30T04:59:54;13.20;99.90
15231;DHT22;32569;51.762;8.564;2023-08-30T05:02:21;13.30;99.90
15231;DHT22;32569;51.762;8.564;2023-08-30T05:04:48;13.20;99.90
15231;DHT22;32569;51.762;8.564;2023-08-30T05:07:15;13.20;99.90
15231;DHT22;32569;51.762;8.564;2023-08-30T05:09:43;13.30;99.90
15231;DHT22;32569;51.762;8.564;2023-08-30T05:12:09;13.40;99.90
15231;DHT22;32569;51.762;8.564;2023-08-30T05:14:36;13.40;99.90
15231;DHT22;32569;51.762;8.564;2023-08-30T05:17:03;13.50;99.90
15231;DHT22;32569;51.762;8.564;2023-08-30T05:19:30;13.60;99.90
15231;DHT22;32569;51.762;8.564;2023-08-30T05:21:56;13.60;99.90
15231;DHT22;32569;51.762;8.564;2023-08-30T05:24:23;13.60;99.90
15231;DHT22;32569;51.762;8.564;2023-08-30T05:26:56;13.60;99.90
15231;DHT22;32569;51.762;8.564;2023-08-30T05:29:22;13.60;99.90
15231;DHT22;32569;51.762;8.564;2023-08-30T05:31:49;13.70;99.90
15231;DHT22;32569;51.762;8.564;2023-08-30T05:34:19;13.70;99.90
15231;DHT22;32569;51.762;8.564;2023-08-30T05:36:45;13.60;99.90
15231;DHT22;32569;51.762;8.564;2023-08-30T05:39:15;13.60;99.90
15231;DHT22;32569;51.762;8.564;2023-08-30T05:41:42;13.60;99.90
15231;DHT22;32569;51.762;8.564;2023-08-30T05:44:10;13.60;99.90
15231;DHT22;32569;51.762;8.564;2023-08-30T05:46:37;13.50;99.90
15231;DHT22;32569;51.762;8.564;2023-08-30T05:49:03;13.60;99.90
15231;DHT22;32569;51.762;8.564;2023-08-30T05:51:30;13.80;99.90
15231;DHT22;32569;51.762;8.564;2023-08-30T05:53:57;13.80;99.90
15231;DHT22;32569;51.762;8.564;2023-08-30T05:56:25;13.80;99.90
15231;DHT22;32569;51.762;8.564;2023-08-30T05:58:52;13.90;99.90
15231;DHT22;32569;51.762;8.564;2023-08-30T06:01:20;14.00;99.90
15231;DHT22;32569;51.762;8.564;2023-08-30T06:03:49;14.10;99.90
15231;DHT22;32569;51.762;8.564;2023-08-30T06:06:16;14.00;99.90
15231;DHT22;32569;51.762;8.564;2023-08-30T06:08:52;14.00;99.90
15231;DHT22;32569;51.762;8.564;2023-08-30T06:11:18;14.00;99.90
15231;DHT22;32569;51.762;8.564;2023-08-30T06:13:45;14.10;99.90
15231;DHT22;32569;51.762;8.564;2023-08-30T06:16:12;14.10;99.90
15231;DHT22;32569;51.762;8.564;2023-08-30T06:18:40;14.20;99.90
15231;DHT22;32569;51.762;8.564;2023-08-30T06:21:13;14.20;99.90
15231;DHT22;32569;51.762;8.564;2023-08-30T06:23:39;14.20;99.90
15231;DHT22;32569;51.762;8.564;2023-08-30T06:26:06;14.10;99.90
15231;DHT22;32569;51.762;8.564;2023-08-30T06:28:33;14.30;99.90
15231;DHT22;32569;51.762;8.564;2023-08-30T06:30:59;14.40;99.90
15231;DHT22;32569;51.762;8.564;2023-08-30T06:33:26;14.40;99.90
15231;DHT22;32569;51.762;8.564;2023-08-30T06:35:54;14.40;99.90
15231;DHT22;32569;51.762;8.564;2023-08-30T06:38:21;14.40;99.90
15231;DHT22;32569;51.762;8.564;2023-08-30T06:40:48;14.40;99.90
15231;DHT22;32569;51.762;8.564;2023-08-30T06:43:15;14.40;99.90
15231;DHT22;32569;51.762;8.564;2023-08-30T06:45:46;14.40;99.90
15231;DHT22;32569;51.762;8.564;2023-08-30T06:48:13;14.40;99.90
15231;DHT22;32569;51.762;8.564;2023-08-30T06:50:39;14.50;99.90
15231;DHT22;32569;51.762;8.564;2023-08-30T06:53:07;14.50;99.90
15231;DHT22;32569;51.762;8.564;2023-08-30T06:55:35;14.60;99.90
15231;DHT22;32569;51.762;8.564;2023-08-30T06:58:03;14.50;99.90
15231;DHT22;32569;51.762;8.564;2023-08-30T07:00:30;14.60;99.90
15231;DHT22;32569;51.762;8.564;2023-08-30T07:02:57;14.60;99.90
15231;DHT22;32569;51.762;8.564;2023-08-30T07:05:24;14.70;99.90
15231;DHT22;32569;51.762;8.564;2023-08-30T07:07:54;14.70;99.90
15231;DHT22;32569;51.762;8.564;2023-08-30T07:10:24;14.80;99.90
15231;DHT22;32569;51.762;8.564;2023-08-30T07:12:51;14.90;99.90
15231;DHT22;32569;51.762;8.564;2023-08-30T07:15:21;15.00;99.90
15231;DHT22;32569;51.762;8.564;2023-08-30T07:17:50;15.10;99.90
15231;DHT22;32569;51.762;8.564;2023-08-30T07:20:17;15.10;99.90
15231;DHT22;32569;51.762;8.564;2023-08-30T07:22:43;15.10;99.90
15231;DHT22;32569;51.762;8.564;2023-08-30T07:25:10;15.20;99.90
15231;DHT22;32569;51.762;8.564;2023-08-30T07:27:40;15.20;99.90
15231;DHT22;32569;51.762;8.564;2023-08-30T07:30:08;15.30;99.90
15231;DHT22;32569;51.762;8.564;2023-08-30T07:32:37;15.40;99.90
15231;DHT22;32569;51.762;8.564;2023-08-30T07:35:10;15.60;99.90
15231;DHT22;32569;51.762;8.564;2023-08-30T07:37:37;15.60;99.90
15231;DHT22;32569;51.762;8.564;2023-08-30T07:40:04;15.70;99.90
15231;DHT22;32569;51.762;8.564;2023-08-30T07:42:31;15.80;99.90
15231;DHT22;32569;51.762;8.564;2023-08-30T07:44:59;15.80;99.90
15231;DHT22;32569;51.762;8.564;2023-08-30T07:47:26;15.80;99.90
15231;DHT22;32569;51.762;8.564;2023-08-30T07:49:53;15.90;99.90
15231;DHT22;32569;51.762;8.564;2023-08-30T07:52:19;15.90;99.90
15231;DHT22;32569;51.762;8.564;2023-08-30T07:54:46;16.00;99.90
15231;DHT22;32569;51.762;8.564;2023-08-30T07:57:13;16.10;99.90
15231;DHT22;32569;51.762;8.564;2023-08-30T07:59:39;16.10;99.90
15231;DHT22;32569;51.762;8.564;2023-08-30T08:02:08;16.20;99.90
15231;DHT22;32569;51.762;8.564;2023-08-30T08:04:35;16.30;99.90
15231;DHT22;32569;51.762;8.564;2023-08-30T08:07:02;16.30;99.90
15231;DHT22;32569;51.762;8.564;2023-08-30T08:09:30;16.40;99.90
15231;DHT22;32569;51.762;8.564;2023-08-30T08:12:03;16.50;99.90
15231;DHT22;32569;51.762;8.564;2023-08-30T08:14:30;16.60;99.90
15231;DHT22;32569;51.762;8.564;2023-08-30T08:16:56;16.60;99.90
15231;DHT22;32569;51.762;8.564;2023-08-30T08:19:25;16.60;99.90
15231;DHT22;32569;51.762;8.564;2023-08-30T08:21:57;16.60;99.90
15231;DHT22;32569;51.762;8.564;2023-08-30T08:24:23;16.60;99.90
15231;DHT22;32569;51.762;8.564;2023-08-30T08:26:50;16.70;99.90
15231;DHT22;32569;51.762;8.564;2023-08-30T08:29:26;16.80;99.90
15231;DHT22;32569;51.762;8.564;2023-08-30T08:31:55;16.80;99.90
15231;DHT22;32569;51.762;8.564;2023-08-30T08:34:22;16.90;99.90
15231;DHT22;32569;51.762;8.564;2023-08-30T08:36:51;16.90;99.90
15231;DHT22;32569;51.762;8.564;2023-08-30T08:39:17;16.90;99.90
15231;DHT22;32569;51.762;8.564;2023-08-30T08:41:45;17.00;99.90
15231;DHT22;32569;51.762;8.564;2023-08-30T08:44:12;17.00;99.90
15231;DHT22;32569;51.762;8.564;2023-08-30T08:46:40;17.00;99.90
15231;DHT22;32569;51.762;8.564;2023-08-30T08:49:09;17.10;99.90
15231;DHT22;32569;51.762;8.564;2023-08-30T08:51:37;17.20;99.90
15231;DHT22;32569;51.762;8.564;2023-08-30T08:54:06;17.30;99.90
15231;DHT22;32569;51.762;8.564;2023-08-30T08:56:35;17.30;99.90
15231;DHT22;32569;51.762;8.564;2023-08-30T08:59:02;17.40;99.90
15231;DHT22;32569;51.762;8.564;2023-08-30T09:01:29;17.40;99.90
15231;DHT22;32569;51.762;8.564;2023-08-30T09:04:01;17.60;99.90
15231;DHT22;32569;51.762;8.564;2023-08-30T09:06:30;17.70;99.90
15231;DHT22;32569;51.762;8.564;2023-08-30T09:08:57;17.70;99.90
15231;DHT22;32569;51.762;8.564;2023-08-30T09:11:25;17.70;99.90
15231;DHT22;32569;51.762;8.564;2023-08-30T09:13:52;17.70;99.90
15231;DHT22;32569;51.762;8.564;2023-08-30T09:16:21;17.70;99.90
15231;DHT22;32569;51.762;8.564;2023-08-30T09:18:58;17.70;99.90
15231;DHT22;32569;51.762;8.564;2023-08-30T09:21:25;17.80;99.90
15231;DHT22;32569;51.762;8.564;2023-08-30T09:23:59;17.90;99.90
15231;DHT22;32569;51.762;8.564;2023-08-30T09:26:28;18.20;99.90
15231;DHT22;32569;51.762;8.564;2023-08-30T09:29:01;18.40;99.90
15231;DHT22;32569;51.762;8.564;2023-08-30T09:31:33;18.50;99.90
15231;DHT22;32569;51.762;8.564;2023-08-30T09:33:59;18.60;99.90
15231;DHT22;32569;51.762;8.564;2023-08-30T09:36:32;18.70;99.90
15231;DHT22;32569;51.762;8.564;2023-08-30T09:38:59;18.80;99.90
15231;DHT22;32569;51.762;8.564;2023-08-30T09:41:30;18.80;99.90
15231;DHT22;32569;51.762;8.564;2023-08-30T09:43:58;18.90;99.90
15231;DHT22;32569;51.762;8.564;2023-08-30T09:46:28;19.10;99.90
15231;DHT22;32569;51.762;8.564;2023-08-30T09:48:55;19.10;99.20
15231;DHT22;32569;51.762;8.564;2023-08-30T09:51:23;19.20;98.50
15231;DHT22;32569;51.762;8.564;2023-08-30T09:53:58;19.20;98.30
15231;DHT22;32569;51.762;8.564;2023-08-30T09:56:31;19.20;99.70
15231;DHT22;32569;51.762;8.564;2023-08-30T09:59:02;19.00;99.80
15231;DHT22;32569;51.762;8.564;2023-08-30T10:01:30;19.00;99.90
15231;DHT22;32569;51.762;8.564;2023-08-30T10:03:57;18.90;99.60
15231;DHT22;32569;51.762;8.564;2023-08-30T10:06:24;18.80;99.60
15231;DHT22;32569;51.762;8.564;2023-08-30T10:08:53;18.80;99.30
15231;DHT22;32569;51.762;8.564;2023-08-30T10:11:21;18.90;98.50
15231;DHT22;32569;51.762;8.564;2023-08-30T10:13:52;18.90;97.90
15231;DHT22;32569;51.762;8.564;2023-08-30T10:16:20;18.90;97.70
15231;DHT22;32569;51.762;8.564;2023-08-30T10:18:52;19.00;98.20
15231;DHT22;32569;51.762;8.564;2023-08-30T10:21:21;19.10;98.60
15231;DHT22;32569;51.762;8.564;2023-08-30T10:23:50;19.20;98.80
15231;DHT22;32569;51.762;8.564;2023-08-30T10:26:22;19.30;98.40
15231;DHT22;32569;51.762;8.564;2023-08-30T10:28:48;19.40;97.10
15231;DHT22;32569;51.762;8.564;2023-08-30T10:31:17;19.40;97.40
15231;DHT22;32569;51.762;8.564;2023-08-30T10:33:47;19.50;97.10
15231;DHT22;32569;51.762;8.564;2023-08-30T10:36:20;19.60;96.60
15231;DHT22;32569;51.762;8.564;2023-08-30T10:38:49;19.50;95.70
15231;DHT22;32569;51.762;8.564;2023-08-30T10:41:20;19.50;94.50
15231;DHT22;32569;51.762;8.564;2023-08-30T10:43:50;19.50;95.60
15231;DHT22;32569;51.762;8.564;2023-08-30T10:46:29;19.60;96.20
15231;DHT22;32569;51.762;8.564;2023-08-30T10:49:11;19.60;95.10
15231;DHT22;32569;51.762;8.564;2023-08-30T10:51:40;19.60;95.20
15231;DHT22;32569;51.762;8.564;2023-08-30T10:54:14;19.70;95.00
15231;DHT22;32569;51.762;8.564;2023-08-30T10:56:55;19.70;94.50
15231;DHT22;32569;51.762;8.564;2023-08-30T10:59:24;19.70;94.40
15231;DHT22;32569;51.762;8.564;2023-08-30T11:01:53;19.70;93.40
15231;DHT22;32569;51.762;8.564;2023-08-30T11:04:24;19.70;93.20
15231;DHT22;32569;51.762;8.564;2023-08-30T11:06:51;19.70;93.80
15231;DHT22;32569;51.762;8.564;2023-08-30T11:09:24;19.70;93.30
15231;DHT22;32569;51.762;8.564;2023-08-30T11:11:52;19.70;93.70
15231;DHT22;32569;51.762;8.564;2023-08-30T11:14:21;19.60;93.70
15231;DHT22;32569;51.762;8.564;2023-08-30T11:16:48;19.60;93.90
15231;DHT22;32569;51.762;8.564;2023-08-30T11:19:16;19.60;93.90
15231;DHT22;32569;51.762;8.564;2023-08-30T11:21:44;19.60;93.80
15231;DHT22;32569;51.762;8.564;2023-08-30T11:24:11;19.50;93.60
15231;DHT22;32569;51.762;8.564;2023-08-30T11:26:38;19.40;94.20
15231;DHT22;32569;51.762;8.564;2023-08-30T11:29:06;19.40;94.50
15231;DHT22;32569;51.762;8.564;2023-08-30T11:31:33;19.30;94.20
15231;DHT22;32569;51.762;8.564;2023-08-30T11:34:03;19.40;94.90
15231;DHT22;32569;51.762;8.564;2023-08-30T11:36:32;19.50;95.30
15231;DHT22;32569;51.762;8.564;2023-08-30T11:39:02;19.60;95.60
15231;DHT22;32569;51.762;8.564;2023-08-30T11:41:29;19.80;95.00
15231;DHT22;32569;51.762;8.564;2023-08-30T11:43:58;20.00;94.90
15231;DHT22;32569;51.762;8.564;2023-08-30T11:46:25;20.20;94.50
15231;DHT22;32569;51.762;8.564;2023-08-30T11:48:52;20.40;94.60
15231;DHT22;32569;51.762;8.564;2023-08-30T11:51:19;20.50;94.50
15231;DHT22;32569;51.762;8.564;2023-08-30T11:53:50;20.70;93.90
15231;DHT22;32569;51.762;8.564;2023-08-30T11:56:18;20.80;93.90
15231;DHT22;32569;51.762;8.564;2023-08-30T11:58:48;20.80;93.40
15231;DHT22;32569;51.762;8.564;2023-08-30T12:01:18;20.90;93.10
15231;DHT22;32569;51.762;8.564;2023-08-30T12:03:45;21.00;93.00
15231;DHT22;32569;51.762;8.564;2023-08-30T12:06:16;20.90;93.30
15231;DHT22;32569;51.762;8.564;2023-08-30T12:08:43;21.00;93.60
15231;DHT22;32569;51.762;8.564;2023-08-30T12:11:19;20.90;93.40
15231;DHT22;32569;51.762;8.564;2023-08-30T12:13:46;21.00;93.50
15231;DHT22;32569;51.762;8.564;2023-08-30T12:16:17;20.90;93.20
15231;DHT22;32569;51.762;8.564;2023-08-30T12:18:44;20.80;93.00
15231;DHT22;32569;51.762;8.564;2023-08-30T12:21:13;20.80;93.20
15231;DHT22;32569;51.762;8.564;2023-08-30T12:23:40;20.70;93.40
15231;DHT22;32569;51.762;8.564;2023-08-30T12:26:14;20.50;94.10
15231;DHT22;32569;51.762;8.564;2023-08-30T12:28:45;20.40;94.70
15231;DHT22;32569;51.762;8.564;2023-08-30T12:31:12;20.30;94.70
15231;DHT22;32569;51.762;8.564;2023-08-30T12:33:42;20.10;94.80
15231;DHT22;32569;51.762;8.564;2023-08-30T12:36:13;20.00;95.40
15231;DHT22;32569;51.762;8.564;2023-08-30T12:38:39;20.00;95.10
15231;DHT22;32569;51.762;8.564;2023-08-30T12:41:06;19.90;95.30
15231;DHT22;32569;51.762;8.564;2023-08-30T12:43:33;19.80;95.70
15231;DHT22;32569;51.762;8.564;2023-08-30T12:46:04;19.70;95.10
15231;DHT22;32569;51.762;8.564;2023-08-30T12:48:33;19.60;95.30
15231;DHT22;32569;51.762;8.564;2023-08-30T12:50:59;19.50;95.40
15231;DHT22;32569;51.762;8.564;2023-08-30T12:53:26;19.30;95.60
15231;DHT22;32569;51.762;8.564;2023-08-30T12:55:53;19.30;95.80
15231;DHT22;32569;51.762;8.564;2023-08-30T12:58:19;19.20;95.80
15231;DHT22;32569;51.762;8.564;2023-08-30T13:00:46;19.20;95.80
15231;DHT22;32569;51.762;8.564;2023-08-30T13:03:14;19.20;95.50
15231;DHT22;32569;51.762;8.564;2023-08-30T13:05:44;19.20;95.60
15231;DHT22;32569;51.762;8.564;2023-08-30T13:08:10;19.30;95.80
15231;DHT22;32569;51.762;8.564;2023-08-30T13:10:37;19.10;96.70
15231;DHT22;32569;51.762;8.564;2023-08-30T13:13:06;18.90;97.80
15231;DHT22;32569;51.762;8.564;2023-08-30T13:15:33;18.60;98.80
15231;DHT22;32569;51.762;8.564;2023-08-30T13:18:00;18.50;99.90
15231;DHT22;32569;51.762;8.564;2023-08-30T13:20:28;18.30;99.90
15231;DHT22;32569;51.762;8.564;2023-08-30T13:22:55;18.10;99.90
15231;DHT22;32569;51.762;8.564;2023-08-30T13:25:22;18.00;99.90
15231;DHT22;32569;51.762;8.564;2023-08-30T13:27:48;17.70;99.90
15231;DHT22;32569;51.762;8.564;2023-08-30T13:30:18;17.70;99.90
15231;DHT22;32569;51.762;8.564;2023-08-30T13:32:49;17.50;99.90
15231;DHT22;32569;51.762;8.564;2023-08-30T13:35:17;17.40;99.90
15231;DHT22;32569;51.762;8.564;2023-08-30T13:37:45;17.30;99.90
15231;DHT22;32569;51.762;8.564;2023-08-30T13:40:15;17.20;99.90
15231;DHT22;32569;51.762;8.564;2023-08-30T13:42:42;17.30;99.90
15231;DHT22;32569;51.762;8.564;2023-08-30T13:45:09;17.20;99.90
15231;DHT22;32569;51.762;8.564;2023-08-30T13:47:36;17.00;99.90
15231;DHT22;32569;51.762;8.564;2023-08-30T13:50:03;16.80;99.90
15231;DHT22;32569;51.762;8.564;2023-08-30T13:52:39;16.80;99.90
15231;DHT22;32569;51.762;8.564;2023-08-30T13:55:08;16.70;99.90
15231;DHT22;32569;51.762;8.564;2023-08-30T13:57:38;16.50;99.90
15231;DHT22;32569;51.762;8.564;2023-08-30T14:00:05;16.30;99.90
15231;DHT22;32569;51.762;8.564;2023-08-30T14:02:43;16.30;99.90
15231;DHT22;32569;51.762;8.564;2023-08-30T14:05:10;16.20;99.90
15231;DHT22;32569;51.762;8.564;2023-08-30T14:07:39;16.10;99.90
15231;DHT22;32569;51.762;8.564;2023-08-30T14:10:08;16.10;99.90
15231;DHT22;32569;51.762;8.564;2023-08-30T14:12:36;16.10;99.90
15231;DHT22;32569;51.762;8.564;2023-08-30T14:15:04;16.00;99.90
15231;DHT22;32569;51.762;8.564;2023-08-30T14:17:33;16.00;99.90
15231;DHT22;32569;51.762;8.564;2023-08-30T14:20:03;16.10;99.90
15231;DHT22;32569;51.762;8.564;2023-08-30T14:22:30;16.10;99.90
15231;DHT22;32569;51.762;8.564;2023-08-30T14:24:58;16.00;99.90
15231;DHT22;32569;51.762;8.564;2023-08-30T14:27:26;16.00;99.90
15231;DHT22;32569;51.762;8.564;2023-08-30T14:29:53;16.00;99.90
15231;DHT22;32569;51.762;8.564;2023-08-30T14:32:20;16.10;99.90
15231;DHT22;32569;51.762;8.564;2023-08-30T14:34:47;16.10;99.90
15231;DHT22;32569;51.762;8.564;2023-08-30T14:37:13;16.00;99.90
15231;DHT22;32569;51.762;8.564;2023-08-30T14:39:40;16.10;99.90
15231;DHT22;32569;51.762;8.564;2023-08-30T14:42:07;16.00;99.90
15231;DHT22;32569;51.762;8.564;2023-08-30T14:44:35;16.10;99.90
15231;DHT22;32569;51.762;8.564;2023-08-30T14:47:02;16.20;99.90
15231;DHT22;32569;51.762;8.564;2023-08-30T14:49:30;16.30;99.90
15231;DHT22;32569;51.762;8.564;2023-08-30T14:51:57;16.30;99.90
15231;DHT22;32569;51.762;8.564;2023-08-30T14:54:26;16.30;99.90
15231;DHT22;32569;51.762;8.564;2023-08-30T14:56:53;16.20;99.90
15231;DHT22;32569;51.762;8.564;2023-08-30T14:59:20;16.20;99.90
15231;DHT22;32569;51.762;8.564;2023-08-30T15:01:48;16.20;99.90
15231;DHT22;32569;51.762;8.564;2023-08-30T15:04:15;16.40;99.90
15231;DHT22;32569;51.762;8.564;2023-08-30T15:06:41;16.40;99.90
15231;DHT22;32569;51.762;8.564;2023-08-30T15:09:09;16.40;99.90
15231;DHT22;32569;51.762;8.564;2023-08-30T15:11:36;16.40;99.90
15231;DHT22;32569;51.762;8.564;2023-08-30T15:14:03;16.40;99.90
15231;DHT22;32569;51.762;8.564;2023-08-30T15:16:30;16.40;99.90
15231;DHT22;32569;51.762;8.564;2023-08-30T15:19:00;16.50;99.90
15231;DHT22;32569;51.762;8.564;2023-08-30T15:21:27;16.50;99.90
15231;DHT22;32569;51.762;8.564;2023-08-30T15:23:54;16.40;99.90
15231;DHT22;32569;51.762;8.564;2023-08-30T15:26:20;16.30;99.90
15231;DHT22;32569;51.762;8.564;2023-08-30T15:28:47;16.30;99.90
15231;DHT22;32569;51.762;8.564;2023-08-30T15:31:14;16.20;99.90
15231;DHT22;32569;51.762;8.564;2023-08-30T15:33:42;16.20;99.90
15231;DHT22;32569;51.762;8.564;2023-08-30T15:36:10;16.20;99.90